WetterOnline ( https://www.wetteronline.de )

Wetter aktuell Neustrelitz

Aktuelles Wetter: Feldberg (115m)

6-stündlich | Neueste Meldungen
Ortszeit Temperatur Wetter
Di, 10.12. 19:00 0.3° C wolkenlos
Di, 10.12. 13:00 4.4° C wolkenlos
Di, 10.12. 7:00 1.7° C wolkenlos
Di, 10.12. 1:00 3.7° C wolkig
Mo, 09.12. 19:00 5.4° C leichter Regen
Mo, 09.12. 13:00 6.3° C Sprühregen
Mo, 09.12. 7:00 4.2° C bewölkt
Mo, 09.12. 1:00 5.6° C leicht bewölkt
Ortszeit Temperatur Wetter
Mi, 11.12. 0:30 0.6° C wolkig
Mi, 11.12. 0:20 0.6° C wolkig
Mi, 11.12. 0:10 0.6° C wolkig
Mi, 11.12. 0:00 0.5° C wolkig
Di, 10.12. 23:50 0.5° C wolkig
Di, 10.12. 23:40 0.5° C leicht bewölkt
Di, 10.12. 23:30 0.1° C wolkig
Di, 10.12. 23:00 -0.1° C wolkig
Ortszeit Relative Feuchte Sichtweite
Di, 10.12. 19:00 99% 17 km
Di, 10.12. 13:00 79% 35 km
Di, 10.12. 7:00 86% 40 km
Di, 10.12. 1:00 84% 29 km
Mo, 09.12. 19:00 98% 22 km
Mo, 09.12. 13:00 82% 45 km
Mo, 09.12. 7:00 90% 40 km
Mo, 09.12. 1:00 83% 30 km
Ortszeit Relative Feuchte Sichtweite
Mi, 11.12. 0:30 91% 24 km
Mi, 11.12. 0:20 91% -
Mi, 11.12. 0:10 92% -
Mi, 11.12. 0:00 92% 23 km
Di, 10.12. 23:50 92% -
Di, 10.12. 23:40 92% -
Di, 10.12. 23:30 96% 19 km
Di, 10.12. 23:00 97% 15 km
Ortszeit Niederschlagsmenge Niederschlagsart
Di, 10.12. 19:00 0.0 l/m2 in 12 Std. -
Di, 10.12. 13:00 0.0 l/m2 in 6 Std. -
Di, 10.12. 7:00 0.1 l/m2 in 12 Std. -
Di, 10.12. 1:00 0.1 l/m2 in 6 Std. Regen
Mo, 09.12. 19:00 2 l/m2 in 12 Std. Regen
Mo, 09.12. 13:00 0.1 l/m2 in 6 Std. Regen
Mo, 09.12. 7:00 0.1 l/m2 in 12 Std. Regen
Mo, 09.12. 1:00 0.1 l/m2 in 6 Std. Regen
Ortszeit Niederschlagsmenge Niederschlagsart
Mi, 11.12. 0:30 0.0 l/m2 in 1 Std. -
Mi, 11.12. 0:20 keine Meldung -
Mi, 11.12. 0:10 keine Meldung -
Mi, 11.12. 0:00 0.0 l/m2 in 1 Std. -
Di, 10.12. 23:50 keine Meldung -
Di, 10.12. 23:40 keine Meldung -
Di, 10.12. 23:30 0.0 l/m2 in 1 Std. -
Di, 10.12. 23:00 0.0 l/m2 in 1 Std. -
Ortszeit Stärke Spitze Richtung
km/h Bft. km/h Grad Sektor
Di, 10.12. 19:00 7 2 20 210° SW
Di, 10.12. 13:00 13 3 31 250° W
Di, 10.12. 7:00 22 4 40 280° W
Di, 10.12. 1:00 24 4 41 290° W
Mo, 09.12. 19:00 13 3 31 250° W
Mo, 09.12. 13:00 22 4 40 220° SW
Mo, 09.12. 7:00 22 4 58 220° SW
Mo, 09.12. 1:00 18 3 50 210° SW
Ortszeit Stärke Spitze Richtung
km/h Bft. km/h Grad Sektor
Mi, 11.12. 0:30 20 4 26 180° S
Mi, 11.12. 0:20 20 4 - 180° S
Mi, 11.12. 0:10 18 3 - 190° S
Mi, 11.12. 0:00 18 3 29 190° S
Di, 10.12. 23:50 18 3 - 190° S
Di, 10.12. 23:40 18 3 - 180° S
Di, 10.12. 23:30 15 3 24 180° S
Di, 10.12. 23:00 14 3 25 170° S
Ortszeit Untergrenze Bedeckung Gattung
total tief tief mittel hoch
Di, 10.12. 19:00 - 0/8 0/8 - - -
Di, 10.12. 13:00 - 0/8 0/8 - - -
Di, 10.12. 7:00 - 0/8 0/8 - - -
Di, 10.12. 1:00 600 m 5/8 5/8 - - -
Mo, 09.12. 19:00 210 m 8/8 8/8 - - -
Mo, 09.12. 13:00 930 m 7/8 7/8 - - -
Mo, 09.12. 7:00 1410 m 7/8 7/8 - - -
Mo, 09.12. 1:00 3600 m 2/8 2/8 - - -
Ortszeit Bedeckungsgrad in Achtel und Wolkenuntergrenze
Mi, 11.12. 0:30 8(10500m) 8(10500m)
Mi, 11.12. 0:20 8(10500m) 8(10500m)
Mi, 11.12. 0:10 8(10500m) 8(10500m)
Mi, 11.12. 0:00 3(10500m) 7(10500m)
Di, 10.12. 23:50 3(10500m) 7(10500m)
Di, 10.12. 23:40 1(9000m) 6(10500m)
Di, 10.12. 23:30 1(9000m) 7(10500m)
Di, 10.12. 23:00 1(10500m) 7(10500m)
Ortszeit Luftdruck NN (hPa) Tendenz (hPa in 3 Std.)
Di, 10.12. 19:00 1022 - 0,5
Di, 10.12. 13:00 1022 + 1,3
Di, 10.12. 7:00 1017 + 3,9
Di, 10.12. 1:00 1008 + 4,0
Mo, 09.12. 19:00 1000 + 2,0
Mo, 09.12. 13:00 997 - 0,1
Mo, 09.12. 7:00 996 + 0,5
Mo, 09.12. 1:00 996 - 0,5
Ortszeit Luftdruck NN (hPa) Tendenz (hPa in 3 Std.)
Mi, 11.12. 0:30 1018 - 3,0
Mi, 11.12. 0:20 1018 keine Meldung
Mi, 11.12. 0:10 1018 keine Meldung
Mi, 11.12. 0:00 1019 - 2,6
Di, 10.12. 23:50 1019 keine Meldung
Di, 10.12. 23:40 1019 keine Meldung
Di, 10.12. 23:30 1019 - 2,3
Di, 10.12. 23:00 1020 - 1,9
Ortszeit Schneehöhe (cm)
Di, 10.12. 19:00 0
Di, 10.12. 13:00 0
Di, 10.12. 7:00 0
Di, 10.12. 1:00 0
Mo, 09.12. 19:00 0
Mo, 09.12. 13:00 0
Mo, 09.12. 7:00 0
Mo, 09.12. 1:00 0
Ortszeit Schneehöhe (cm)
Mi, 11.12. 0:30 0
Mi, 11.12. 0:20 0
Mi, 11.12. 0:10 0
Mi, 11.12. 0:00 0
Di, 10.12. 23:50 0
Di, 10.12. 23:40 0
Di, 10.12. 23:30 0
Di, 10.12. 23:00 0
Link zu dieser Seite / Seite empfehlen

Das Wetter in ...